sensor_id;sensor_type;location;lat;lon;timestamp;P1;durP1;ratioP1;P2;durP2;ratioP2
37823;SDS011;23667;43.246;26.576;2022-08-03T00:01:33;5.13;;;1.17;;
37823;SDS011;23667;43.246;26.576;2022-08-03T00:04:00;3.63;;;1.42;;
37823;SDS011;23667;43.246;26.576;2022-08-03T00:06:26;3.45;;;1.38;;
37823;SDS011;23667;43.246;26.576;2022-08-03T00:08:51;3.72;;;1.35;;
37823;SDS011;23667;43.246;26.576;2022-08-03T00:11:17;7.25;;;1.40;;
37823;SDS011;23667;43.246;26.576;2022-08-03T00:13:43;7.90;;;1.48;;
37823;SDS011;23667;43.246;26.576;2022-08-03T00:16:09;4.38;;;1.38;;
37823;SDS011;23667;43.246;26.576;2022-08-03T00:18:35;4.65;;;1.50;;
37823;SDS011;23667;43.246;26.576;2022-08-03T00:21:01;5.25;;;1.55;;
37823;SDS011;23667;43.246;26.576;2022-08-03T00:23:28;2.40;;;1.60;;
37823;SDS011;23667;43.246;26.576;2022-08-03T00:25:53;4.88;;;1.40;;
37823;SDS011;23667;43.246;26.576;2022-08-03T00:28:19;4.85;;;1.63;;
37823;SDS011;23667;43.246;26.576;2022-08-03T00:30:44;5.72;;;1.40;;
37823;SDS011;23667;43.246;26.576;2022-08-03T00:33:10;2.13;;;1.52;;
37823;SDS011;23667;43.246;26.576;2022-08-03T00:35:35;6.85;;;1.90;;
37823;SDS011;23667;43.246;26.576;2022-08-03T00:38:01;4.93;;;1.42;;
37823;SDS011;23667;43.246;26.576;2022-08-03T00:40:27;3.55;;;1.42;;
37823;SDS011;23667;43.246;26.576;2022-08-03T00:45:23;3.75;;;1.60;;
37823;SDS011;23667;43.246;26.576;2022-08-03T00:47:53;4.07;;;1.77;;
37823;SDS011;23667;43.246;26.576;2022-08-03T00:50:21;2.72;;;1.38;;
37823;SDS011;23667;43.246;26.576;2022-08-03T00:52:47;4.10;;;1.30;;
37823;SDS011;23667;43.246;26.576;2022-08-03T00:55:14;6.88;;;1.63;;
37823;SDS011;23667;43.246;26.576;2022-08-03T00:57:41;11.15;;;1.27;;
37823;SDS011;23667;43.246;26.576;2022-08-03T01:00:08;8.70;;;1.52;;
37823;SDS011;23667;43.246;26.576;2022-08-03T01:02:35;4.75;;;1.52;;
37823;SDS011;23667;43.246;26.576;2022-08-03T01:05:02;4.13;;;1.38;;
37823;SDS011;23667;43.246;26.576;2022-08-03T01:10:23;3.30;;;1.27;;
37823;SDS011;23667;43.246;26.576;2022-08-03T01:18:10;4.40;;;1.63;;
37823;SDS011;23667;43.246;26.576;2022-08-03T01:20:46;4.45;;;2.63;;
37823;SDS011;23667;43.246;26.576;2022-08-03T01:31:36;6.20;;;1.65;;
37823;SDS011;23667;43.246;26.576;2022-08-03T01:34:06;6.72;;;1.83;;
37823;SDS011;23667;43.246;26.576;2022-08-03T01:36:37;3.22;;;1.80;;
37823;SDS011;23667;43.246;26.576;2022-08-03T01:39:05;3.58;;;1.80;;
37823;SDS011;23667;43.246;26.576;2022-08-03T01:41:39;5.13;;;2.45;;
37823;SDS011;23667;43.246;26.576;2022-08-03T01:44:09;4.47;;;2.30;;
37823;SDS011;23667;43.246;26.576;2022-08-03T01:46:37;4.90;;;2.13;;
37823;SDS011;23667;43.246;26.576;2022-08-03T01:49:05;4.75;;;2.30;;
37823;SDS011;23667;43.246;26.576;2022-08-03T01:51:35;8.73;;;2.78;;
37823;SDS011;23667;43.246;26.576;2022-08-03T01:54:03;4.82;;;2.35;;
37823;SDS011;23667;43.246;26.576;2022-08-03T01:56:30;9.15;;;2.65;;
37823;SDS011;23667;43.246;26.576;2022-08-03T01:58:57;5.85;;;2.25;;
37823;SDS011;23667;43.246;26.576;2022-08-03T02:01:26;6.25;;;2.47;;
37823;SDS011;23667;43.246;26.576;2022-08-03T02:03:54;8.77;;;2.20;;
37823;SDS011;23667;43.246;26.576;2022-08-03T02:06:22;5.50;;;2.08;;
37823;SDS011;23667;43.246;26.576;2022-08-03T02:08:50;5.60;;;2.13;;
37823;SDS011;23667;43.246;26.576;2022-08-03T02:11:17;5.70;;;2.03;;
37823;SDS011;23667;43.246;26.576;2022-08-03T02:13:43;4.57;;;1.90;;
37823;SDS011;23667;43.246;26.576;2022-08-03T02:16:12;5.18;;;2.13;;
37823;SDS011;23667;43.246;26.576;2022-08-03T02:18:39;5.80;;;2.30;;
37823;SDS011;23667;43.246;26.576;2022-08-03T02:21:05;9.77;;;2.10;;
37823;SDS011;23667;43.246;26.576;2022-08-03T02:23:34;5.18;;;2.47;;
37823;SDS011;23667;43.246;26.576;2022-08-03T02:26:01;8.25;;;2.45;;
37823;SDS011;23667;43.246;26.576;2022-08-03T02:28:36;5.47;;;2.17;;
37823;SDS011;23667;43.246;26.576;2022-08-03T02:31:06;3.00;;;2.67;;
37823;SDS011;23667;43.246;26.576;2022-08-03T02:33:48;6.20;;;2.00;;
37823;SDS011;23667;43.246;26.576;2022-08-03T02:36:18;3.78;;;2.70;;
37823;SDS011;23667;43.246;26.576;2022-08-03T02:38:48;6.28;;;2.30;;
37823;SDS011;23667;43.246;26.576;2022-08-03T02:41:20;3.95;;;2.53;;
37823;SDS011;23667;43.246;26.576;2022-08-03T02:43:48;10.95;;;2.10;;
37823;SDS011;23667;43.246;26.576;2022-08-03T02:46:18;4.15;;;2.13;;
37823;SDS011;23667;43.246;26.576;2022-08-03T02:48:46;8.52;;;2.20;;
37823;SDS011;23667;43.246;26.576;2022-08-03T02:51:14;7.22;;;2.97;;
37823;SDS011;23667;43.246;26.576;2022-08-03T02:53:43;5.10;;;2.50;;
37823;SDS011;23667;43.246;26.576;2022-08-03T02:56:10;4.00;;;2.70;;
37823;SDS011;23667;43.246;26.576;2022-08-03T02:58:38;8.50;;;2.33;;
37823;SDS011;23667;43.246;26.576;2022-08-03T03:01:06;4.05;;;2.53;;
37823;SDS011;23667;43.246;26.576;2022-08-03T03:03:33;9.45;;;2.50;;
37823;SDS011;23667;43.246;26.576;2022-08-03T03:06:00;6.82;;;2.60;;
37823;SDS011;23667;43.246;26.576;2022-08-03T03:08:27;4.22;;;2.42;;
37823;SDS011;23667;43.246;26.576;2022-08-03T03:10:54;5.65;;;2.55;;
37823;SDS011;23667;43.246;26.576;2022-08-03T03:13:23;6.57;;;2.55;;
37823;SDS011;23667;43.246;26.576;2022-08-03T03:15:51;9.20;;;2.50;;
37823;SDS011;23667;43.246;26.576;2022-08-03T03:18:18;3.70;;;2.00;;
37823;SDS011;23667;43.246;26.576;2022-08-03T03:20:45;3.42;;;2.25;;
37823;SDS011;23667;43.246;26.576;2022-08-03T03:23:12;3.83;;;2.13;;
37823;SDS011;23667;43.246;26.576;2022-08-03T03:25:38;4.90;;;2.50;;
37823;SDS011;23667;43.246;26.576;2022-08-03T03:28:04;4.03;;;2.28;;
37823;SDS011;23667;43.246;26.576;2022-08-03T03:30:30;7.32;;;2.15;;
37823;SDS011;23667;43.246;26.576;2022-08-03T03:32:57;11.70;;;3.00;;
37823;SDS011;23667;43.246;26.576;2022-08-03T03:35:23;5.30;;;2.78;;
37823;SDS011;23667;43.246;26.576;2022-08-03T03:37:49;8.43;;;2.83;;
37823;SDS011;23667;43.246;26.576;2022-08-03T03:40:15;6.07;;;2.95;;
37823;SDS011;23667;43.246;26.576;2022-08-03T03:42:41;7.70;;;3.05;;
37823;SDS011;23667;43.246;26.576;2022-08-03T03:45:07;10.95;;;3.25;;
37823;SDS011;23667;43.246;26.576;2022-08-03T03:47:33;14.50;;;3.20;;
37823;SDS011;23667;43.246;26.576;2022-08-03T03:50:00;10.65;;;3.13;;
37823;SDS011;23667;43.246;26.576;2022-08-03T03:52:30;12.02;;;3.97;;
37823;SDS011;23667;43.246;26.576;2022-08-03T03:54:56;9.52;;;3.30;;
37823;SDS011;23667;43.246;26.576;2022-08-03T03:57:22;5.80;;;3.10;;
37823;SDS011;23667;43.246;26.576;2022-08-03T03:59:47;9.15;;;3.00;;
37823;SDS011;23667;43.246;26.576;2022-08-03T04:02:13;5.10;;;3.00;;
37823;SDS011;23667;43.246;26.576;2022-08-03T04:04:38;7.88;;;2.83;;
37823;SDS011;23667;43.246;26.576;2022-08-03T04:07:23;5.45;;;3.03;;
37823;SDS011;23667;43.246;26.576;2022-08-03T04:10:16;15.68;;;3.50;;
37823;SDS011;23667;43.246;26.576;2022-08-03T04:13:05;7.07;;;2.95;;
37823;SDS011;23667;43.246;26.576;2022-08-03T04:15:34;4.22;;;2.95;;
37823;SDS011;23667;43.246;26.576;2022-08-03T04:18:01;8.80;;;2.65;;
37823;SDS011;23667;43.246;26.576;2022-08-03T04:20:29;8.52;;;3.33;;
37823;SDS011;23667;43.246;26.576;2022-08-03T04:22:57;4.70;;;2.55;;
37823;SDS011;23667;43.246;26.576;2022-08-03T04:25:26;9.75;;;3.05;;
37823;SDS011;23667;43.246;26.576;2022-08-03T04:27:55;7.57;;;3.22;;
37823;SDS011;23667;43.246;26.576;2022-08-03T04:30:25;7.95;;;3.38;;
37823;SDS011;23667;43.246;26.576;2022-08-03T04:32:53;12.70;;;3.00;;
37823;SDS011;23667;43.246;26.576;2022-08-03T04:35:21;6.63;;;3.60;;
37823;SDS011;23667;43.246;26.576;2022-08-03T04:37:50;8.82;;;3.22;;
37823;SDS011;23667;43.246;26.576;2022-08-03T04:40:24;8.45;;;3.47;;
37823;SDS011;23667;43.246;26.576;2022-08-03T04:42:54;6.60;;;3.60;;
37823;SDS011;23667;43.246;26.576;2022-08-03T04:45:21;7.18;;;3.10;;
37823;SDS011;23667;43.246;26.576;2022-08-03T04:47:48;10.35;;;3.85;;
37823;SDS011;23667;43.246;26.576;2022-08-03T04:50:14;10.30;;;3.95;;
37823;SDS011;23667;43.246;26.576;2022-08-03T04:52:41;7.30;;;3.25;;
37823;SDS011;23667;43.246;26.576;2022-08-03T04:55:07;10.80;;;3.08;;
37823;SDS011;23667;43.246;26.576;2022-08-03T04:57:32;11.57;;;3.72;;
37823;SDS011;23667;43.246;26.576;2022-08-03T04:59:58;8.90;;;2.80;;
37823;SDS011;23667;43.246;26.576;2022-08-03T05:02:24;12.23;;;3.78;;
37823;SDS011;23667;43.246;26.576;2022-08-03T05:04:49;24.90;;;3.40;;
37823;SDS011;23667;43.246;26.576;2022-08-03T05:07:16;14.00;;;3.40;;
37823;SDS011;23667;43.246;26.576;2022-08-03T05:09:42;17.13;;;3.40;;
37823;SDS011;23667;43.246;26.576;2022-08-03T05:12:08;19.17;;;3.28;;
37823;SDS011;23667;43.246;26.576;2022-08-03T05:14:34;11.07;;;2.78;;
37823;SDS011;23667;43.246;26.576;2022-08-03T05:17:07;9.07;;;3.42;;
37823;SDS011;23667;43.246;26.576;2022-08-03T05:19:34;20.40;;;4.20;;
37823;SDS011;23667;43.246;26.576;2022-08-03T05:21:59;7.65;;;2.40;;
37823;SDS011;23667;43.246;26.576;2022-08-03T05:24:28;8.27;;;2.33;;
37823;SDS011;23667;43.246;26.576;2022-08-03T05:26:54;5.38;;;2.08;;
37823;SDS011;23667;43.246;26.576;2022-08-03T05:29:19;12.10;;;2.30;;
37823;SDS011;23667;43.246;26.576;2022-08-03T05:31:44;5.57;;;2.42;;
37823;SDS011;23667;43.246;26.576;2022-08-03T05:34:10;8.40;;;2.42;;
37823;SDS011;23667;43.246;26.576;2022-08-03T05:36:35;4.38;;;1.30;;
37823;SDS011;23667;43.246;26.576;2022-08-03T05:39:01;3.25;;;1.10;;
37823;SDS011;23667;43.246;26.576;2022-08-03T05:41:27;5.82;;;0.80;;
37823;SDS011;23667;43.246;26.576;2022-08-03T05:43:53;3.08;;;0.80;;
37823;SDS011;23667;43.246;26.576;2022-08-03T05:46:19;2.95;;;0.77;;
37823;SDS011;23667;43.246;26.576;2022-08-03T05:48:45;6.82;;;0.90;;
37823;SDS011;23667;43.246;26.576;2022-08-03T05:51:11;6.82;;;0.70;;
37823;SDS011;23667;43.246;26.576;2022-08-03T05:53:38;3.17;;;0.60;;
37823;SDS011;23667;43.246;26.576;2022-08-03T05:56:04;8.20;;;0.50;;
37823;SDS011;23667;43.246;26.576;2022-08-03T05:58:29;4.20;;;0.70;;
37823;SDS011;23667;43.246;26.576;2022-08-03T06:00:55;5.63;;;0.82;;
37823;SDS011;23667;43.246;26.576;2022-08-03T06:03:20;3.15;;;0.70;;
37823;SDS011;23667;43.246;26.576;2022-08-03T06:05:46;1.88;;;0.50;;
37823;SDS011;23667;43.246;26.576;2022-08-03T06:08:11;5.45;;;0.82;;
37823;SDS011;23667;43.246;26.576;2022-08-03T06:10:37;4.57;;;0.40;;
37823;SDS011;23667;43.246;26.576;2022-08-03T06:13:03;3.67;;;0.50;;
37823;SDS011;23667;43.246;26.576;2022-08-03T06:15:28;1.33;;;0.50;;
37823;SDS011;23667;43.246;26.576;2022-08-03T06:17:57;4.43;;;0.73;;
37823;SDS011;23667;43.246;26.576;2022-08-03T06:20:23;8.38;;;0.82;;
37823;SDS011;23667;43.246;26.576;2022-08-03T06:22:49;2.00;;;0.55;;
37823;SDS011;23667;43.246;26.576;2022-08-03T06:25:14;2.13;;;0.45;;
37823;SDS011;23667;43.246;26.576;2022-08-03T06:27:41;3.60;;;0.60;;
37823;SDS011;23667;43.246;26.576;2022-08-03T06:30:07;1.55;;;0.50;;
37823;SDS011;23667;43.246;26.576;2022-08-03T06:32:35;4.75;;;1.08;;
37823;SDS011;23667;43.246;26.576;2022-08-03T06:35:05;2.72;;;0.73;;
37823;SDS011;23667;43.246;26.576;2022-08-03T06:37:43;2.33;;;0.30;;
37823;SDS011;23667;43.246;26.576;2022-08-03T06:40:15;3.38;;;0.45;;
37823;SDS011;23667;43.246;26.576;2022-08-03T06:42:43;4.05;;;0.40;;
37823;SDS011;23667;43.246;26.576;2022-08-03T06:45:09;3.75;;;0.32;;
37823;SDS011;23667;43.246;26.576;2022-08-03T06:47:40;5.22;;;0.45;;
37823;SDS011;23667;43.246;26.576;2022-08-03T06:50:06;6.50;;;0.40;;
37823;SDS011;23667;43.246;26.576;2022-08-03T06:52:33;1.17;;;0.40;;
37823;SDS011;23667;43.246;26.576;2022-08-03T06:54:59;1.02;;;0.43;;
37823;SDS011;23667;43.246;26.576;2022-08-03T06:57:24;3.10;;;0.30;;
37823;SDS011;23667;43.246;26.576;2022-08-03T06:59:50;5.55;;;0.57;;
37823;SDS011;23667;43.246;26.576;2022-08-03T07:02:15;6.85;;;0.50;;
37823;SDS011;23667;43.246;26.576;2022-08-03T07:04:43;7.45;;;0.40;;
37823;SDS011;23667;43.246;26.576;2022-08-03T07:07:09;1.33;;;0.40;;
37823;SDS011;23667;43.246;26.576;2022-08-03T07:09:40;2.58;;;0.40;;
37823;SDS011;23667;43.246;26.576;2022-08-03T07:12:05;2.30;;;0.35;;
37823;SDS011;23667;43.246;26.576;2022-08-03T07:14:31;4.00;;;0.50;;
37823;SDS011;23667;43.246;26.576;2022-08-03T07:16:57;0.93;;;0.30;;
37823;SDS011;23667;43.246;26.576;2022-08-03T07:19:23;2.75;;;0.32;;
37823;SDS011;23667;43.246;26.576;2022-08-03T07:21:51;1.80;;;0.30;;
37823;SDS011;23667;43.246;26.576;2022-08-03T07:24:17;7.22;;;0.50;;
37823;SDS011;23667;43.246;26.576;2022-08-03T07:26:42;0.57;;;0.30;;
37823;SDS011;23667;43.246;26.576;2022-08-03T07:29:10;1.67;;;0.40;;
37823;SDS011;23667;43.246;26.576;2022-08-03T07:31:38;2.05;;;0.30;;
37823;SDS011;23667;43.246;26.576;2022-08-03T07:34:07;2.85;;;0.30;;
37823;SDS011;23667;43.246;26.576;2022-08-03T07:36:35;1.63;;;0.30;;
37823;SDS011;23667;43.246;26.576;2022-08-03T07:39:00;2.15;;;0.20;;
37823;SDS011;23667;43.246;26.576;2022-08-03T07:41:26;2.05;;;0.20;;
37823;SDS011;23667;43.246;26.576;2022-08-03T07:43:51;2.28;;;0.40;;
37823;SDS011;23667;43.246;26.576;2022-08-03T07:46:17;8.65;;;0.30;;
37823;SDS011;23667;43.246;26.576;2022-08-03T07:48:43;3.53;;;0.60;;
37823;SDS011;23667;43.246;26.576;2022-08-03T07:51:11;8.25;;;0.30;;
37823;SDS011;23667;43.246;26.576;2022-08-03T07:53:37;3.47;;;0.30;;
37823;SDS011;23667;43.246;26.576;2022-08-03T07:56:05;0.88;;;0.30;;
37823;SDS011;23667;43.246;26.576;2022-08-03T07:58:30;24.17;;;1.13;;
37823;SDS011;23667;43.246;26.576;2022-08-03T08:00:56;2.88;;;0.20;;
37823;SDS011;23667;43.246;26.576;2022-08-03T08:03:22;0.93;;;0.20;;
37823;SDS011;23667;43.246;26.576;2022-08-03T08:05:47;1.17;;;0.28;;
37823;SDS011;23667;43.246;26.576;2022-08-03T08:08:19;1.45;;;0.22;;
37823;SDS011;23667;43.246;26.576;2022-08-03T08:10:45;1.00;;;0.25;;
37823;SDS011;23667;43.246;26.576;2022-08-03T08:13:11;2.25;;;0.30;;
37823;SDS011;23667;43.246;26.576;2022-08-03T08:15:37;6.07;;;0.40;;
37823;SDS011;23667;43.246;26.576;2022-08-03T08:18:02;4.93;;;0.30;;
37823;SDS011;23667;43.246;26.576;2022-08-03T08:20:29;0.30;;;0.20;;
37823;SDS011;23667;43.246;26.576;2022-08-03T08:23:00;3.65;;;0.28;;
37823;SDS011;23667;43.246;26.576;2022-08-03T08:25:29;14.63;;;0.50;;
37823;SDS011;23667;43.246;26.576;2022-08-03T08:27:55;8.63;;;0.32;;
37823;SDS011;23667;43.246;26.576;2022-08-03T08:30:22;2.05;;;0.30;;
37823;SDS011;23667;43.246;26.576;2022-08-03T08:32:48;0.50;;;0.20;;
37823;SDS011;23667;43.246;26.576;2022-08-03T08:35:15;2.88;;;0.40;;
37823;SDS011;23667;43.246;26.576;2022-08-03T08:37:42;3.38;;;0.30;;
37823;SDS011;23667;43.246;26.576;2022-08-03T08:40:08;1.52;;;0.40;;
37823;SDS011;23667;43.246;26.576;2022-08-03T08:42:38;1.98;;;0.43;;
37823;SDS011;23667;43.246;26.576;2022-08-03T08:45:05;3.30;;;0.52;;
37823;SDS011;23667;43.246;26.576;2022-08-03T08:47:33;5.07;;;1.25;;
37823;SDS011;23667;43.246;26.576;2022-08-03T08:50:02;3.17;;;0.35;;
37823;SDS011;23667;43.246;26.576;2022-08-03T08:52:28;2.78;;;0.55;;
37823;SDS011;23667;43.246;26.576;2022-08-03T08:54:59;1.30;;;0.40;;
37823;SDS011;23667;43.246;26.576;2022-08-03T08:57:28;4.20;;;0.40;;
37823;SDS011;23667;43.246;26.576;2022-08-03T09:00:03;4.05;;;0.40;;
37823;SDS011;23667;43.246;26.576;2022-08-03T09:02:31;1.25;;;0.40;;
37823;SDS011;23667;43.246;26.576;2022-08-03T09:04:56;0.93;;;0.40;;
37823;SDS011;23667;43.246;26.576;2022-08-03T09:07:22;5.43;;;0.43;;
37823;SDS011;23667;43.246;26.576;2022-08-03T09:09:48;1.50;;;0.40;;
37823;SDS011;23667;43.246;26.576;2022-08-03T09:12:13;0.70;;;0.35;;
37823;SDS011;23667;43.246;26.576;2022-08-03T09:14:39;5.53;;;0.40;;
37823;SDS011;23667;43.246;26.576;2022-08-03T09:17:05;1.55;;;0.35;;
37823;SDS011;23667;43.246;26.576;2022-08-03T09:19:32;4.22;;;0.60;;
37823;SDS011;23667;43.246;26.576;2022-08-03T09:22:14;9.45;;;0.55;;
37823;SDS011;23667;43.246;26.576;2022-08-03T09:24:54;5.65;;;0.40;;
37823;SDS011;23667;43.246;26.576;2022-08-03T09:27:24;1.83;;;0.55;;
37823;SDS011;23667;43.246;26.576;2022-08-03T09:29:50;2.13;;;0.40;;
37823;SDS011;23667;43.246;26.576;2022-08-03T09:32:23;0.93;;;0.40;;
37823;SDS011;23667;43.246;26.576;2022-08-03T09:34:50;2.63;;;0.40;;
37823;SDS011;23667;43.246;26.576;2022-08-03T09:37:17;10.40;;;0.63;;
37823;SDS011;23667;43.246;26.576;2022-08-03T09:39:45;1.85;;;0.40;;
37823;SDS011;23667;43.246;26.576;2022-08-03T09:42:12;0.75;;;0.40;;
37823;SDS011;23667;43.246;26.576;2022-08-03T09:44:40;1.98;;;0.40;;
37823;SDS011;23667;43.246;26.576;2022-08-03T09:47:08;1.88;;;0.40;;
37823;SDS011;23667;43.246;26.576;2022-08-03T09:49:35;3.63;;;0.30;;
37823;SDS011;23667;43.246;26.576;2022-08-03T09:52:12;5.78;;;0.50;;
37823;SDS011;23667;43.246;26.576;2022-08-03T09:54:38;5.53;;;0.70;;
37823;SDS011;23667;43.246;26.576;2022-08-03T09:57:05;9.35;;;0.60;;
37823;SDS011;23667;43.246;26.576;2022-08-03T09:59:31;1.90;;;0.40;;
37823;SDS011;23667;43.246;26.576;2022-08-03T10:01:57;1.75;;;0.43;;
37823;SDS011;23667;43.246;26.576;2022-08-03T10:04:26;1.20;;;0.43;;
37823;SDS011;23667;43.246;26.576;2022-08-03T10:07:08;1.02;;;0.40;;
37823;SDS011;23667;43.246;26.576;2022-08-03T10:09:35;4.00;;;0.50;;
37823;SDS011;23667;43.246;26.576;2022-08-03T10:12:08;5.78;;;0.43;;
37823;SDS011;23667;43.246;26.576;2022-08-03T10:14:39;1.33;;;0.32;;
37823;SDS011;23667;43.246;26.576;2022-08-03T10:17:06;4.60;;;0.50;;
37823;SDS011;23667;43.246;26.576;2022-08-03T10:19:33;0.95;;;0.30;;
37823;SDS011;23667;43.246;26.576;2022-08-03T10:22:06;1.02;;;0.30;;
37823;SDS011;23667;43.246;26.576;2022-08-03T10:24:36;3.70;;;0.50;;
37823;SDS011;23667;43.246;26.576;2022-08-03T10:27:07;1.13;;;0.40;;
37823;SDS011;23667;43.246;26.576;2022-08-03T10:29:39;1.30;;;0.47;;
37823;SDS011;23667;43.246;26.576;2022-08-03T10:32:13;1.75;;;0.40;;
37823;SDS011;23667;43.246;26.576;2022-08-03T10:34:49;1.85;;;0.47;;
37823;SDS011;23667;43.246;26.576;2022-08-03T10:37:16;3.38;;;0.45;;
37823;SDS011;23667;43.246;26.576;2022-08-03T10:39:43;3.60;;;0.73;;
37823;SDS011;23667;43.246;26.576;2022-08-03T10:42:22;1.50;;;0.50;;
37823;SDS011;23667;43.246;26.576;2022-08-03T10:44:52;1.73;;;0.40;;
37823;SDS011;23667;43.246;26.576;2022-08-03T10:47:29;1.33;;;0.30;;
37823;SDS011;23667;43.246;26.576;2022-08-03T10:49:56;5.40;;;0.52;;
37823;SDS011;23667;43.246;26.576;2022-08-03T10:52:22;3.83;;;0.60;;
37823;SDS011;23667;43.246;26.576;2022-08-03T10:54:48;3.35;;;0.60;;
37823;SDS011;23667;43.246;26.576;2022-08-03T10:57:48;5.53;;;0.55;;
37823;SDS011;23667;43.246;26.576;2022-08-03T11:00:15;2.10;;;0.40;;
37823;SDS011;23667;43.246;26.576;2022-08-03T11:05:29;2.70;;;0.45;;
37823;SDS011;23667;43.246;26.576;2022-08-03T11:11:00;3.30;;;0.40;;
37823;SDS011;23667;43.246;26.576;2022-08-03T11:16:33;1.65;;;0.50;;
37823;SDS011;23667;43.246;26.576;2022-08-03T11:19:01;2.28;;;0.40;;
37823;SDS011;23667;43.246;26.576;2022-08-03T11:35:15;3.75;;;0.40;;
37823;SDS011;23667;43.246;26.576;2022-08-03T11:48:37;4.50;;;0.45;;
37823;SDS011;23667;43.246;26.576;2022-08-03T11:51:05;2.28;;;0.40;;
37823;SDS011;23667;43.246;26.576;2022-08-03T11:53:51;1.60;;;0.45;;
37823;SDS011;23667;43.246;26.576;2022-08-03T11:56:20;4.30;;;0.65;;
37823;SDS011;23667;43.246;26.576;2022-08-03T11:58:50;1.88;;;0.40;;
37823;SDS011;23667;43.246;26.576;2022-08-03T12:01:18;1.70;;;0.30;;
37823;SDS011;23667;43.246;26.576;2022-08-03T12:03:44;3.70;;;0.50;;
37823;SDS011;23667;43.246;26.576;2022-08-03T12:06:11;1.33;;;0.40;;
37823;SDS011;23667;43.246;26.576;2022-08-03T12:08:38;1.70;;;0.40;;
37823;SDS011;23667;43.246;26.576;2022-08-03T12:11:07;3.50;;;0.50;;
37823;SDS011;23667;43.246;26.576;2022-08-03T12:13:38;2.97;;;0.40;;
37823;SDS011;23667;43.246;26.576;2022-08-03T12:16:18;6.82;;;0.40;;
37823;SDS011;23667;43.246;26.576;2022-08-03T12:18:45;1.60;;;0.30;;
37823;SDS011;23667;43.246;26.576;2022-08-03T12:21:19;1.50;;;0.47;;
37823;SDS011;23667;43.246;26.576;2022-08-03T12:23:48;3.88;;;0.40;;
37823;SDS011;23667;43.246;26.576;2022-08-03T12:26:14;5.80;;;0.40;;
37823;SDS011;23667;43.246;26.576;2022-08-03T12:28:45;6.50;;;0.90;;
37823;SDS011;23667;43.246;26.576;2022-08-03T12:31:12;5.07;;;0.52;;
37823;SDS011;23667;43.246;26.576;2022-08-03T12:36:31;4.00;;;0.40;;
37823;SDS011;23667;43.246;26.576;2022-08-03T12:38:59;1.08;;;0.50;;
37823;SDS011;23667;43.246;26.576;2022-08-03T12:41:30;1.27;;;0.35;;
37823;SDS011;23667;43.246;26.576;2022-08-03T12:43:59;6.38;;;0.40;;
37823;SDS011;23667;43.246;26.576;2022-08-03T12:46:32;5.53;;;0.63;;
37823;SDS011;23667;43.246;26.576;2022-08-03T12:51:35;8.02;;;0.43;;
37823;SDS011;23667;43.246;26.576;2022-08-03T12:54:07;4.65;;;0.60;;
37823;SDS011;23667;43.246;26.576;2022-08-03T12:56:33;5.35;;;0.73;;
37823;SDS011;23667;43.246;26.576;2022-08-03T12:59:00;4.78;;;0.60;;
37823;SDS011;23667;43.246;26.576;2022-08-03T13:01:45;2.13;;;0.50;;
37823;SDS011;23667;43.246;26.576;2022-08-03T13:04:11;3.25;;;0.52;;
37823;SDS011;23667;43.246;26.576;2022-08-03T13:06:37;10.60;;;0.70;;
37823;SDS011;23667;43.246;26.576;2022-08-03T13:09:06;2.20;;;0.70;;
37823;SDS011;23667;43.246;26.576;2022-08-03T13:11:32;5.47;;;0.47;;
37823;SDS011;23667;43.246;26.576;2022-08-03T13:13:58;1.95;;;0.55;;
37823;SDS011;23667;43.246;26.576;2022-08-03T13:16:24;8.30;;;0.85;;
37823;SDS011;23667;43.246;26.576;2022-08-03T13:18:50;16.52;;;0.50;;
37823;SDS011;23667;43.246;26.576;2022-08-03T13:21:18;4.63;;;0.43;;
37823;SDS011;23667;43.246;26.576;2022-08-03T13:23:44;5.70;;;0.52;;
37823;SDS011;23667;43.246;26.576;2022-08-03T13:26:10;1.05;;;0.47;;
37823;SDS011;23667;43.246;26.576;2022-08-03T13:28:37;3.58;;;0.60;;
37823;SDS011;23667;43.246;26.576;2022-08-03T13:31:03;1.08;;;0.50;;
37823;SDS011;23667;43.246;26.576;2022-08-03T13:33:28;0.68;;;0.30;;
37823;SDS011;23667;43.246;26.576;2022-08-03T13:35:54;0.80;;;0.30;;
37823;SDS011;23667;43.246;26.576;2022-08-03T13:38:20;2.65;;;0.60;;
37823;SDS011;23667;43.246;26.576;2022-08-03T13:40:45;0.95;;;0.30;;
37823;SDS011;23667;43.246;26.576;2022-08-03T13:43:11;1.85;;;0.30;;
37823;SDS011;23667;43.246;26.576;2022-08-03T13:45:37;5.35;;;0.30;;
37823;SDS011;23667;43.246;26.576;2022-08-03T13:48:02;2.92;;;0.60;;
37823;SDS011;23667;43.246;26.576;2022-08-03T13:50:28;3.67;;;0.40;;
37823;SDS011;23667;43.246;26.576;2022-08-03T13:52:55;3.95;;;0.45;;
37823;SDS011;23667;43.246;26.576;2022-08-03T13:55:21;0.98;;;0.30;;
37823;SDS011;23667;43.246;26.576;2022-08-03T13:57:46;2.05;;;0.30;;
37823;SDS011;23667;43.246;26.576;2022-08-03T14:00:13;2.55;;;0.70;;
37823;SDS011;23667;43.246;26.576;2022-08-03T14:02:39;5.43;;;0.40;;
37823;SDS011;23667;43.246;26.576;2022-08-03T14:05:05;2.85;;;0.45;;
37823;SDS011;23667;43.246;26.576;2022-08-03T14:07:32;2.55;;;0.30;;
37823;SDS011;23667;43.246;26.576;2022-08-03T14:09:57;6.32;;;0.50;;
37823;SDS011;23667;43.246;26.576;2022-08-03T14:12:23;5.90;;;0.30;;
37823;SDS011;23667;43.246;26.576;2022-08-03T14:14:49;2.00;;;0.40;;
37823;SDS011;23667;43.246;26.576;2022-08-03T14:17:14;13.00;;;0.57;;
37823;SDS011;23667;43.246;26.576;2022-08-03T14:19:40;3.03;;;0.20;;
37823;SDS011;23667;43.246;26.576;2022-08-03T14:22:05;1.20;;;0.30;;
37823;SDS011;23667;43.246;26.576;2022-08-03T14:24:31;2.47;;;0.30;;
37823;SDS011;23667;43.246;26.576;2022-08-03T14:26:56;5.53;;;0.43;;
37823;SDS011;23667;43.246;26.576;2022-08-03T14:29:22;2.28;;;0.30;;
37823;SDS011;23667;43.246;26.576;2022-08-03T14:31:47;0.73;;;0.30;;
37823;SDS011;23667;43.246;26.576;2022-08-03T14:34:13;3.13;;;0.38;;
37823;SDS011;23667;43.246;26.576;2022-08-03T14:36:38;3.63;;;0.40;;
37823;SDS011;23667;43.246;26.576;2022-08-03T14:39:04;1.95;;;0.50;;
37823;SDS011;23667;43.246;26.576;2022-08-03T14:41:30;2.50;;;0.40;;
37823;SDS011;23667;43.246;26.576;2022-08-03T14:43:55;1.95;;;0.40;;
37823;SDS011;23667;43.246;26.576;2022-08-03T14:46:21;1.60;;;0.20;;
37823;SDS011;23667;43.246;26.576;2022-08-03T14:48:47;2.13;;;0.30;;
37823;SDS011;23667;43.246;26.576;2022-08-03T14:51:12;4.00;;;0.30;;
37823;SDS011;23667;43.246;26.576;2022-08-03T14:53:38;1.02;;;0.35;;
37823;SDS011;23667;43.246;26.576;2022-08-03T14:56:04;2.58;;;0.30;;
37823;SDS011;23667;43.246;26.576;2022-08-03T14:58:29;5.45;;;0.68;;
37823;SDS011;23667;43.246;26.576;2022-08-03T15:00:55;4.22;;;0.30;;
37823;SDS011;23667;43.246;26.576;2022-08-03T15:03:22;0.82;;;0.20;;
37823;SDS011;23667;43.246;26.576;2022-08-03T15:05:52;2.22;;;0.68;;
37823;SDS011;23667;43.246;26.576;2022-08-03T15:08:20;0.55;;;0.30;;
37823;SDS011;23667;43.246;26.576;2022-08-03T15:10:47;2.33;;;0.30;;
37823;SDS011;23667;43.246;26.576;2022-08-03T15:13:13;0.95;;;0.30;;
37823;SDS011;23667;43.246;26.576;2022-08-03T15:15:39;9.55;;;0.50;;
37823;SDS011;23667;43.246;26.576;2022-08-03T15:18:05;2.65;;;0.47;;
37823;SDS011;23667;43.246;26.576;2022-08-03T15:20:30;2.08;;;0.38;;
37823;SDS011;23667;43.246;26.576;2022-08-03T15:22:56;0.80;;;0.30;;
37823;SDS011;23667;43.246;26.576;2022-08-03T15:25:21;3.47;;;0.47;;
37823;SDS011;23667;43.246;26.576;2022-08-03T15:27:47;1.23;;;0.38;;
37823;SDS011;23667;43.246;26.576;2022-08-03T15:30:12;0.75;;;0.30;;
37823;SDS011;23667;43.246;26.576;2022-08-03T15:32:38;5.82;;;0.30;;
37823;SDS011;23667;43.246;26.576;2022-08-03T15:35:04;1.10;;;0.30;;